createdAt,value
2022-07-29T00:00:13.620Z,87.73
2022-07-29T00:01:19.317Z,87.73
2022-07-29T00:02:16.295Z,88.74
2022-07-29T00:03:16.250Z,88.43
2022-07-29T00:04:17.805Z,88.23
2022-07-29T00:05:17.959Z,87.82
2022-07-29T00:06:18.846Z,87.32
2022-07-29T00:07:19.731Z,87.32
2022-07-29T00:08:20.601Z,87.52
2022-07-29T00:09:21.483Z,87.42
2022-07-29T00:10:22.357Z,87.32
2022-07-29T00:11:23.262Z,87.42
2022-07-29T00:12:26.052Z,87.42
2022-07-29T00:13:32.214Z,87.02
2022-07-29T00:14:26.437Z,86.82
2022-07-29T00:15:26.319Z,86.82
2022-07-29T00:16:27.249Z,86.82
2022-07-29T00:17:28.119Z,86.82
2022-07-29T00:18:28.992Z,86.61
2022-07-29T00:19:29.652Z,86.61
2022-07-29T00:20:30.244Z,86.71
2022-07-29T00:21:31.144Z,86.71
2022-07-29T00:22:32.023Z,86.71
2022-07-29T00:23:36.671Z,87.22
2022-07-29T00:24:33.767Z,87.22
2022-07-29T00:25:34.649Z,86.91
2022-07-29T00:26:35.546Z,86.61
2022-07-29T00:27:36.416Z,86.61
2022-07-29T00:28:37.301Z,86.71
2022-07-29T00:29:38.185Z,86.91
2022-07-29T00:30:39.056Z,87.12
2022-07-29T00:31:39.993Z,87.42
2022-07-29T00:32:40.846Z,87.32
2022-07-29T00:33:41.718Z,86.71
2022-07-29T00:34:42.595Z,86.21
2022-07-29T00:35:43.557Z,86.71
2022-07-29T00:36:44.441Z,86.82
2022-07-29T00:37:45.315Z,86.82
2022-07-29T00:38:46.196Z,86.51
2022-07-29T00:39:47.069Z,86.82
2022-07-29T00:40:47.957Z,86.91
2022-07-29T00:41:48.849Z,86.91
2022-07-29T00:42:49.722Z,86.91
2022-07-29T00:43:50.604Z,86.61
2022-07-29T00:44:51.487Z,86.61
2022-07-29T00:45:52.371Z,86.61
2022-07-29T00:46:53.340Z,86.61
2022-07-29T00:47:54.172Z,86.71
2022-07-29T00:48:55.088Z,86.91
2022-07-29T00:49:55.926Z,86.91
2022-07-29T00:50:56.815Z,86.91
2022-07-29T00:51:57.691Z,87.22
2022-07-29T00:52:58.573Z,87.02
2022-07-29T00:53:59.471Z,87.02
2022-07-29T00:55:03.675Z,87.02
2022-07-29T00:56:02.108Z,87.12
2022-07-29T00:57:02.013Z,87.12
2022-07-29T00:58:02.890Z,86.82
2022-07-29T00:59:03.766Z,86.51
2022-07-29T01:00:04.665Z,86.71
2022-07-29T01:01:05.602Z,86.71
2022-07-29T01:02:06.612Z,86.71
2022-07-29T01:03:06.989Z,86.82
2022-07-29T01:04:07.865Z,86.61
2022-07-29T01:05:08.753Z,86.51
2022-07-29T01:06:09.640Z,86.61
2022-07-29T01:07:10.525Z,86.61
2022-07-29T01:08:11.409Z,86.61
2022-07-29T01:09:12.291Z,86.51
2022-07-29T01:10:13.175Z,86.61
2022-07-29T01:11:14.056Z,86.82
2022-07-29T01:12:14.964Z,86.82
2022-07-29T01:13:15.836Z,86.82
2022-07-29T01:14:17.204Z,86.82
2022-07-29T01:15:17.643Z,86.31
2022-07-29T01:16:18.596Z,86.31
2022-07-29T01:17:19.439Z,86.10
2022-07-29T01:18:22.076Z,85.90
2022-07-29T01:19:21.136Z,85.90
2022-07-29T01:20:22.019Z,85.90
2022-07-29T01:21:22.902Z,86.71
2022-07-29T01:22:23.796Z,86.61
2022-07-29T01:23:24.679Z,87.02
2022-07-29T01:24:25.581Z,86.91
2022-07-29T01:25:26.455Z,87.22
2022-07-29T01:26:27.151Z,87.82
2022-07-29T01:27:28.042Z,87.66
2022-07-29T01:28:28.716Z,87.77
2022-07-29T01:29:36.255Z,87.46
2022-07-29T01:30:31.378Z,87.97
2022-07-29T01:31:31.328Z,87.77
2022-07-29T01:32:31.840Z,87.26
2022-07-29T01:33:32.688Z,87.26
2022-07-29T01:34:33.569Z,87.36
2022-07-29T01:35:34.452Z,87.36
2022-07-29T01:36:35.340Z,87.46
2022-07-29T01:37:36.227Z,87.36
2022-07-29T01:38:37.110Z,87.26
2022-07-29T01:39:37.993Z,87.26
2022-07-29T01:40:38.874Z,87.26
2022-07-29T01:41:39.758Z,87.36
2022-07-29T01:42:40.683Z,87.36
2022-07-29T01:43:41.539Z,87.36
2022-07-29T01:44:42.423Z,87.36
2022-07-29T01:45:43.308Z,87.26
2022-07-29T01:46:44.260Z,87.26
2022-07-29T01:47:45.113Z,87.36
2022-07-29T01:48:46.042Z,87.56
2022-07-29T01:49:46.522Z,87.16
2022-07-29T01:50:47.431Z,87.05
2022-07-29T01:51:48.289Z,87.16
2022-07-29T01:52:49.174Z,87.46
2022-07-29T01:53:50.072Z,87.26
2022-07-29T01:54:50.940Z,87.46
2022-07-29T01:55:51.822Z,87.56
2022-07-29T01:56:52.704Z,87.36
2022-07-29T01:57:53.589Z,87.81
2022-07-29T01:58:54.481Z,87.91
2022-07-29T01:59:55.014Z,87.91
2022-07-29T02:00:55.900Z,88.11
2022-07-29T02:01:56.790Z,88.01
2022-07-29T02:02:57.673Z,87.91
2022-07-29T02:03:58.555Z,87.81
2022-07-29T02:04:59.483Z,87.60
2022-07-29T02:06:00.324Z,87.60
2022-07-29T02:07:01.207Z,87.71
2022-07-29T02:08:02.100Z,87.60
2022-07-29T02:09:02.973Z,87.60
2022-07-29T02:10:03.855Z,87.60
2022-07-29T02:11:04.749Z,87.81
2022-07-29T02:12:05.623Z,87.60
2022-07-29T02:13:06.518Z,87.51
2022-07-29T02:14:07.402Z,87.51
2022-07-29T02:15:08.284Z,87.51
2022-07-29T02:16:09.301Z,87.51
2022-07-29T02:17:10.152Z,87.51
2022-07-29T02:18:11.035Z,87.10
2022-07-29T02:19:11.922Z,87.10
2022-07-29T02:20:12.792Z,87.10
2022-07-29T02:21:15.070Z,87.00
2022-07-29T02:22:14.189Z,87.10
2022-07-29T02:23:15.090Z,87.20
2022-07-29T02:24:16.479Z,87.00
2022-07-29T02:25:16.943Z,86.90
2022-07-29T02:26:17.815Z,86.90
2022-07-29T02:27:18.691Z,86.79
2022-07-29T02:28:19.581Z,86.90
2022-07-29T02:29:20.464Z,86.79
2022-07-29T02:30:21.372Z,86.69
2022-07-29T02:31:22.297Z,87.00
2022-07-29T02:32:23.163Z,86.90
2022-07-29T02:33:23.666Z,86.90
2022-07-29T02:34:24.549Z,86.90
2022-07-29T02:35:25.434Z,86.69
2022-07-29T02:36:26.326Z,86.59
2022-07-29T02:37:27.202Z,86.59
2022-07-29T02:38:28.096Z,86.59
2022-07-29T02:39:28.980Z,86.59
2022-07-29T02:40:29.863Z,86.59
2022-07-29T02:41:30.900Z,86.59
2022-07-29T02:42:31.248Z,86.79
2022-07-29T02:43:32.125Z,86.79
2022-07-29T02:44:34.776Z,87.20
2022-07-29T02:45:33.823Z,87.20
2022-07-29T02:46:34.763Z,87.10
2022-07-29T02:47:41.782Z,87.00
2022-07-29T02:48:37.433Z,87.00
2022-07-29T02:49:37.279Z,86.90
2022-07-29T02:50:38.160Z,86.90
2022-07-29T02:51:41.458Z,87.00
2022-07-29T02:52:40.837Z,87.10
2022-07-29T02:53:40.706Z,87.30
2022-07-29T02:54:41.600Z,87.40
2022-07-29T02:55:42.471Z,87.45
2022-07-29T02:56:43.350Z,87.65
2022-07-29T02:57:53.814Z,87.65
2022-07-29T02:58:46.015Z,87.74
2022-07-29T02:59:45.888Z,87.74
2022-07-29T03:00:46.788Z,87.74
2022-07-29T03:01:47.771Z,87.85
2022-07-29T03:02:48.641Z,88.35
2022-07-29T03:03:49.529Z,88.35
2022-07-29T03:04:50.498Z,88.46
2022-07-29T03:05:51.364Z,88.25
2022-07-29T03:06:52.258Z,88.60
2022-07-29T03:07:53.143Z,88.70
2022-07-29T03:08:54.025Z,88.60
2022-07-29T03:09:54.908Z,88.70
2022-07-29T03:10:55.791Z,88.60
2022-07-29T03:11:56.677Z,88.80
2022-07-29T03:12:57.555Z,89.11
2022-07-29T03:13:58.430Z,89.01
2022-07-29T03:14:59.310Z,89.21
2022-07-29T03:16:00.362Z,89.31
2022-07-29T03:17:00.764Z,89.41
2022-07-29T03:18:01.677Z,89.41
2022-07-29T03:19:02.541Z,89.81
2022-07-29T03:20:03.415Z,89.81
2022-07-29T03:21:04.296Z,89.61
2022-07-29T03:22:05.171Z,89.55
2022-07-29T03:23:06.062Z,89.55
2022-07-29T03:24:12.408Z,89.65
2022-07-29T03:25:08.713Z,89.65
2022-07-29T03:26:08.587Z,89.65
2022-07-29T03:27:09.469Z,89.55
2022-07-29T03:28:10.352Z,89.65
2022-07-29T03:29:11.254Z,89.76
2022-07-29T03:30:11.816Z,89.65
2022-07-29T03:31:12.758Z,89.65
2022-07-29T03:32:13.609Z,89.65
2022-07-29T03:33:14.349Z,89.86
2022-07-29T03:34:15.599Z,89.65
2022-07-29T03:35:16.151Z,89.65
2022-07-29T03:36:16.990Z,89.41
2022-07-29T03:37:17.800Z,89.11
2022-07-29T03:38:18.628Z,89.21
2022-07-29T03:39:19.511Z,89.11
2022-07-29T03:40:20.384Z,89.11
2022-07-29T03:41:22.638Z,89.01
2022-07-29T03:42:22.028Z,88.90
2022-07-29T03:43:22.851Z,89.11
2022-07-29T03:44:23.672Z,89.01
2022-07-29T03:45:24.498Z,88.90
2022-07-29T03:46:25.354Z,88.90
2022-07-29T03:47:35.503Z,88.90
2022-07-29T03:48:27.899Z,88.80
2022-07-29T03:49:27.826Z,88.70
2022-07-29T03:50:28.632Z,88.60
2022-07-29T03:51:33.248Z,88.60
2022-07-29T03:52:30.421Z,88.60
2022-07-29T03:53:31.258Z,88.49
2022-07-29T03:54:32.108Z,88.29
2022-07-29T03:55:32.918Z,88.20
2022-07-29T03:56:33.738Z,88.09
2022-07-29T03:57:34.568Z,87.99
2022-07-29T03:58:35.404Z,88.20
2022-07-29T03:59:36.232Z,87.99
2022-07-29T04:00:37.091Z,87.79
2022-07-29T04:01:37.912Z,87.69
2022-07-29T04:02:38.742Z,87.79
2022-07-29T04:03:39.637Z,87.79
2022-07-29T04:04:40.455Z,87.99
2022-07-29T04:05:41.284Z,87.99
2022-07-29T04:06:42.135Z,87.99
2022-07-29T04:07:42.942Z,87.85
2022-07-29T04:08:43.772Z,87.74
2022-07-29T04:09:44.598Z,87.74
2022-07-29T04:10:45.421Z,88.05
2022-07-29T04:12:02.306Z,87.89
2022-07-29T04:12:47.987Z,87.69
2022-07-29T04:13:47.804Z,87.79
2022-07-29T04:14:48.620Z,87.89
2022-07-29T04:15:49.493Z,88.09
2022-07-29T04:16:50.266Z,88.29
2022-07-29T04:17:51.137Z,88.40
2022-07-29T04:18:51.945Z,88.40
2022-07-29T04:19:52.775Z,88.09
2022-07-29T04:20:53.594Z,88.29
2022-07-29T04:21:54.424Z,88.60
2022-07-29T04:22:55.258Z,88.80
2022-07-29T04:23:56.094Z,88.70
2022-07-29T04:25:00.321Z,88.60
2022-07-29T04:25:58.624Z,89.04
2022-07-29T04:26:58.444Z,89.65
2022-07-29T04:27:59.285Z,89.45
2022-07-29T04:29:00.112Z,89.96
2022-07-29T04:30:00.965Z,89.65
2022-07-29T04:31:01.909Z,89.35
2022-07-29T04:32:02.704Z,89.35
2022-07-29T04:33:03.551Z,89.65
2022-07-29T04:34:04.362Z,89.96
2022-07-29T04:35:05.183Z,89.96
2022-07-29T04:36:06.025Z,89.96
2022-07-29T04:37:07.729Z,89.76
2022-07-29T04:38:07.569Z,89.45
2022-07-29T04:39:09.278Z,89.65
2022-07-29T04:40:09.109Z,89.55
2022-07-29T04:41:09.922Z,89.55
2022-07-29T04:42:10.898Z,89.45
2022-07-29T04:43:13.132Z,89.76
2022-07-29T04:44:12.758Z,89.65
2022-07-29T04:45:13.358Z,89.65
2022-07-29T04:46:13.978Z,89.55
2022-07-29T04:47:14.760Z,89.45
2022-07-29T04:48:15.595Z,89.45
2022-07-29T04:49:16.508Z,89.25
2022-07-29T04:50:17.313Z,89.35
2022-07-29T04:51:18.140Z,89.15
2022-07-29T04:52:18.961Z,89.15
2022-07-29T04:53:19.817Z,88.90
2022-07-29T04:54:20.643Z,88.70
2022-07-29T04:55:21.472Z,88.49
2022-07-29T04:56:22.294Z,88.29
2022-07-29T04:57:23.119Z,88.09
2022-07-29T04:58:23.969Z,88.09
2022-07-29T04:59:24.779Z,87.99
2022-07-29T05:00:33.116Z,87.89
2022-07-29T05:01:27.335Z,87.79
2022-07-29T05:02:27.240Z,87.48
2022-07-29T05:03:28.061Z,87.48
2022-07-29T05:04:28.907Z,87.69
2022-07-29T05:05:29.718Z,87.69
2022-07-29T05:06:30.545Z,87.45
2022-07-29T05:07:31.374Z,87.54
2022-07-29T05:08:32.203Z,87.45
2022-07-29T05:09:33.033Z,87.45
2022-07-29T05:10:33.864Z,87.65
2022-07-29T05:11:34.696Z,87.65
2022-07-29T05:12:35.512Z,87.45
2022-07-29T05:13:45.001Z,87.45
2022-07-29T05:14:38.092Z,87.34
2022-07-29T05:15:37.980Z,87.45
2022-07-29T05:16:38.770Z,87.74
2022-07-29T05:17:39.608Z,87.65
2022-07-29T05:18:40.440Z,87.45
2022-07-29T05:19:41.264Z,87.85
2022-07-29T05:20:42.090Z,87.65
2022-07-29T05:21:42.934Z,87.74
2022-07-29T05:22:43.794Z,87.89
2022-07-29T05:23:44.585Z,87.79
2022-07-29T05:24:45.405Z,87.89
2022-07-29T05:25:46.234Z,88.29
2022-07-29T05:26:47.054Z,88.29
2022-07-29T05:27:47.912Z,88.29
2022-07-29T05:28:48.803Z,88.20
2022-07-29T05:29:49.633Z,88.60
2022-07-29T05:30:50.532Z,88.80
2022-07-29T05:31:51.192Z,88.80
2022-07-29T05:32:52.015Z,88.90
2022-07-29T05:33:52.897Z,89.01
2022-07-29T05:34:53.689Z,88.80
2022-07-29T05:35:59.934Z,88.80
2022-07-29T05:36:56.234Z,89.01
2022-07-29T05:37:56.063Z,88.90
2022-07-29T05:38:56.893Z,89.11
2022-07-29T05:39:59.021Z,89.11
2022-07-29T05:40:58.459Z,89.11
2022-07-29T05:41:59.281Z,89.11
2022-07-29T05:43:00.101Z,89.01
2022-07-29T05:44:00.957Z,89.01
2022-07-29T05:45:01.770Z,89.31
2022-07-29T05:46:02.650Z,89.51
2022-07-29T05:47:03.499Z,89.41
2022-07-29T05:48:04.357Z,89.72
2022-07-29T05:49:05.240Z,89.51
2022-07-29T05:50:06.093Z,89.61
2022-07-29T05:51:06.881Z,89.72
2022-07-29T05:52:07.708Z,88.90
2022-07-29T05:53:18.789Z,88.96
2022-07-29T05:54:10.261Z,89.26
2022-07-29T05:55:10.080Z,89.37
2022-07-29T05:56:10.909Z,89.47
2022-07-29T05:57:11.728Z,89.37
2022-07-29T05:58:12.596Z,89.47
2022-07-29T05:59:18.334Z,89.32
2022-07-29T06:00:15.113Z,89.23
2022-07-29T06:01:14.989Z,88.62
2022-07-29T06:02:15.848Z,88.11
2022-07-29T06:03:16.661Z,88.21
2022-07-29T06:04:17.918Z,88.31
2022-07-29T06:05:18.426Z,88.27
2022-07-29T06:06:19.254Z,88.17
2022-07-29T06:07:20.081Z,88.27
2022-07-29T06:08:20.904Z,87.77
2022-07-29T06:09:21.735Z,87.36
2022-07-29T06:10:23.912Z,86.96
2022-07-29T06:11:23.072Z,85.80
2022-07-29T06:12:23.900Z,86.10
2022-07-29T06:13:24.722Z,86.71
2022-07-29T06:14:25.558Z,85.90
2022-07-29T06:15:26.386Z,85.86
2022-07-29T06:16:30.214Z,86.07
2022-07-29T06:17:27.768Z,85.76
2022-07-29T06:18:28.647Z,85.36
2022-07-29T06:19:29.484Z,85.16
2022-07-29T06:20:30.369Z,85.25
2022-07-29T06:21:31.193Z,85.86
2022-07-29T06:22:32.019Z,85.62
2022-07-29T06:23:32.844Z,83.90
2022-07-29T06:24:33.724Z,84.00
2022-07-29T06:25:34.524Z,83.40
2022-07-29T06:26:39.596Z,83.50
2022-07-29T06:27:36.292Z,83.80
2022-07-29T06:28:36.912Z,83.70
2022-07-29T06:29:37.752Z,83.80
2022-07-29T06:30:38.608Z,84.11
2022-07-29T06:31:39.419Z,84.17
2022-07-29T06:32:43.186Z,83.36
2022-07-29T06:33:40.763Z,83.46
2022-07-29T06:34:41.600Z,83.56
2022-07-29T06:35:46.548Z,82.45
2022-07-29T06:36:43.903Z,82.45
2022-07-29T06:37:43.731Z,82.71
2022-07-29T06:38:49.442Z,83.42
2022-07-29T06:39:46.390Z,82.31
2022-07-29T06:40:46.230Z,82.61
2022-07-29T06:41:47.037Z,82.71
2022-07-29T06:42:47.865Z,82.71
2022-07-29T06:43:51.890Z,82.41
2022-07-29T06:44:50.411Z,82.81
2022-07-29T06:45:50.290Z,83.42
2022-07-29T06:46:51.058Z,82.67
2022-07-29T06:47:51.881Z,82.37
2022-07-29T06:48:53.366Z,82.17
2022-07-29T06:49:53.349Z,81.87
2022-07-29T06:50:54.164Z,81.56
2022-07-29T06:51:54.955Z,81.87
2022-07-29T06:52:55.783Z,81.76
2022-07-29T06:53:58.397Z,82.07
2022-07-29T06:54:58.325Z,82.47
2022-07-29T06:55:58.156Z,81.73
2022-07-29T06:56:58.985Z,82.03
2022-07-29T06:57:59.806Z,81.12
2022-07-29T06:59:01.483Z,81.32
2022-07-29T07:00:01.412Z,81.22
2022-07-29T07:01:02.267Z,81.12
2022-07-29T07:02:03.115Z,81.32
2022-07-29T07:03:03.924Z,81.79
2022-07-29T07:04:04.757Z,80.58
2022-07-29T07:05:05.584Z,79.16
2022-07-29T07:06:06.404Z,78.86
2022-07-29T07:07:07.232Z,78.76
2022-07-29T07:08:08.052Z,78.46
2022-07-29T07:09:08.906Z,78.63
2022-07-29T07:10:09.723Z,78.92
2022-07-29T07:11:10.559Z,78.22
2022-07-29T07:12:11.374Z,78.42
2022-07-29T07:13:12.199Z,78.32
2022-07-29T07:14:13.028Z,78.02
2022-07-29T07:15:13.858Z,77.92
2022-07-29T07:16:14.772Z,77.58
2022-07-29T07:17:15.585Z,77.78
2022-07-29T07:18:16.408Z,77.28
2022-07-29T07:19:17.244Z,77.58
2022-07-29T07:20:18.063Z,77.78
2022-07-29T07:21:19.665Z,75.56
2022-07-29T07:22:19.493Z,75.96
2022-07-29T07:23:20.358Z,76.14
2022-07-29T07:24:21.162Z,76.14
2022-07-29T07:25:21.989Z,76.03
2022-07-29T07:26:22.845Z,76.43
2022-07-29T07:27:23.662Z,77.20
2022-07-29T07:28:25.257Z,76.20
2022-07-29T07:29:25.107Z,75.15
2022-07-29T07:30:25.939Z,74.85
2022-07-29T07:31:26.842Z,73.68
2022-07-29T07:32:27.723Z,74.65
2022-07-29T07:33:28.566Z,75.02
2022-07-29T07:34:29.722Z,74.68
2022-07-29T07:35:30.107Z,73.27
2022-07-29T07:36:30.941Z,73.58
2022-07-29T07:37:31.763Z,73.91
2022-07-29T07:38:32.595Z,75.27
2022-07-29T07:39:33.432Z,74.27
2022-07-29T07:40:34.287Z,74.14
2022-07-29T07:41:35.091Z,72.13
2022-07-29T07:42:35.911Z,71.73
2022-07-29T07:43:36.742Z,71.53
2022-07-29T07:44:57.197Z,71.33
2022-07-29T07:45:39.322Z,71.73
2022-07-29T07:46:39.129Z,72.37
2022-07-29T07:47:39.866Z,72.06
2022-07-29T07:48:40.747Z,72.06
2022-07-29T07:49:41.723Z,70.66
2022-07-29T07:50:42.164Z,72.10
2022-07-29T07:51:42.992Z,72.40
2022-07-29T07:52:44.708Z,71.70
2022-07-29T07:53:44.555Z,72.74
2022-07-29T07:54:45.378Z,73.14
2022-07-29T07:56:09.832Z,73.04
2022-07-29T07:56:47.922Z,72.03
2022-07-29T07:57:47.572Z,72.84
2022-07-29T07:58:48.411Z,73.34
2022-07-29T07:59:49.239Z,73.64
2022-07-29T08:00:50.092Z,73.74
2022-07-29T08:01:56.010Z,73.84
2022-07-29T08:02:52.650Z,73.44
2022-07-29T08:03:52.453Z,72.64
2022-07-29T08:04:53.283Z,72.13
2022-07-29T08:05:54.112Z,72.53
2022-07-29T08:06:54.932Z,73.14
2022-07-29T08:07:55.770Z,72.67
2022-07-29T08:09:19.570Z,72.87
2022-07-29T08:09:58.312Z,73.07
2022-07-29T08:10:58.143Z,73.27
2022-07-29T08:11:58.969Z,73.88
2022-07-29T08:12:59.799Z,73.68
2022-07-29T08:14:00.635Z,72.57
2022-07-29T08:15:01.442Z,72.07
2022-07-29T08:16:02.403Z,72.77
2022-07-29T08:17:03.215Z,73.88
2022-07-29T08:18:08.397Z,73.71
2022-07-29T08:19:04.705Z,73.00
2022-07-29T08:20:05.625Z,73.31
2022-07-29T08:21:06.392Z,74.21
2022-07-29T08:22:07.204Z,73.51
2022-07-29T08:23:08.024Z,73.51
2022-07-29T08:24:08.899Z,72.77
2022-07-29T08:25:09.705Z,73.68
2022-07-29T08:26:10.530Z,74.18
2022-07-29T08:27:33.506Z,75.09
2022-07-29T08:28:13.068Z,75.45
2022-07-29T08:29:15.932Z,76.15
2022-07-29T08:30:14.623Z,74.41
2022-07-29T08:31:14.617Z,72.60
2022-07-29T08:32:30.976Z,72.06
2022-07-29T08:33:17.158Z,72.06
2022-07-29T08:34:16.986Z,71.73
2022-07-29T08:35:17.815Z,69.92
2022-07-29T08:36:18.656Z,68.82
2022-07-29T08:37:19.474Z,68.12
2022-07-29T08:38:20.302Z,69.22
2022-07-29T08:39:21.146Z,69.39
2022-07-29T08:40:30.729Z,69.49
2022-07-29T08:41:23.696Z,68.08
2022-07-29T08:42:23.504Z,68.08
2022-07-29T08:43:24.325Z,67.88
2022-07-29T08:44:29.620Z,68.59
2022-07-29T08:45:26.961Z,69.19
2022-07-29T08:46:26.775Z,69.49
2022-07-29T08:47:27.623Z,68.29
2022-07-29T08:48:28.431Z,67.88
2022-07-29T08:49:29.277Z,67.99
2022-07-29T08:50:30.107Z,68.08
2022-07-29T08:51:30.927Z,68.05
2022-07-29T08:52:31.755Z,68.35
2022-07-29T08:53:32.586Z,69.06
2022-07-29T08:54:33.467Z,69.26
2022-07-29T08:55:34.287Z,69.56
2022-07-29T08:56:35.103Z,68.26
2022-07-29T08:57:37.196Z,68.55
2022-07-29T08:58:38.304Z,68.02
2022-07-29T08:59:37.346Z,67.72
2022-07-29T09:00:38.321Z,67.62
2022-07-29T09:01:42.306Z,67.72
2022-07-29T09:02:39.695Z,67.82
2022-07-29T09:03:40.565Z,67.92
2022-07-29T09:04:41.366Z,68.02
2022-07-29T09:05:47.507Z,67.29
2022-07-29T09:06:43.911Z,67.79
2022-07-29T09:07:43.739Z,67.49
2022-07-29T09:08:44.559Z,66.78
2022-07-29T09:09:45.237Z,67.19
2022-07-29T09:10:46.073Z,67.19
2022-07-29T09:11:46.894Z,67.19
2022-07-29T09:12:47.717Z,66.89
2022-07-29T09:13:48.544Z,65.28
2022-07-29T09:14:49.374Z,66.28
2022-07-29T09:15:50.202Z,66.78
2022-07-29T09:17:01.101Z,67.19
2022-07-29T09:17:52.747Z,66.09
2022-07-29T09:18:52.565Z,65.39
2022-07-29T09:19:53.404Z,65.78
2022-07-29T09:20:54.224Z,66.78
2022-07-29T09:21:55.053Z,66.89
2022-07-29T09:22:55.872Z,66.46
2022-07-29T09:23:56.705Z,66.16
2022-07-29T09:24:57.551Z,66.16
2022-07-29T09:25:58.370Z,66.66
2022-07-29T09:26:59.188Z,67.25
2022-07-29T09:28:00.021Z,67.05
2022-07-29T09:29:00.837Z,66.46
2022-07-29T09:30:01.681Z,66.55
2022-07-29T09:31:02.513Z,66.75
2022-07-29T09:32:03.452Z,67.05
2022-07-29T09:33:04.388Z,66.42
2022-07-29T09:34:05.169Z,66.42
2022-07-29T09:35:06.010Z,66.42
2022-07-29T09:36:06.839Z,66.32
2022-07-29T09:37:07.664Z,66.49
2022-07-29T09:38:08.491Z,65.29
2022-07-29T09:39:09.303Z,63.59
2022-07-29T09:40:11.831Z,64.09
2022-07-29T09:41:10.782Z,62.89
2022-07-29T09:42:11.609Z,63.39
2022-07-29T09:43:12.428Z,62.16
2022-07-29T09:44:13.274Z,62.86
2022-07-29T09:45:14.100Z,62.49
2022-07-29T09:46:14.926Z,62.99
2022-07-29T09:47:15.798Z,63.66
2022-07-29T09:48:16.585Z,63.39
2022-07-29T09:49:17.469Z,63.39
2022-07-29T09:50:18.254Z,64.79
2022-07-29T09:51:20.578Z,64.36
2022-07-29T09:52:19.750Z,64.09
2022-07-29T09:53:20.571Z,63.49
2022-07-29T09:54:21.397Z,63.49
2022-07-29T09:55:22.247Z,62.39
2022-07-29T09:56:23.056Z,63.29
2022-07-29T09:57:27.310Z,64.79
2022-07-29T09:58:25.586Z,63.76
2022-07-29T09:59:25.405Z,63.89
2022-07-29T10:00:26.271Z,64.19
2022-07-29T10:01:27.111Z,64.46
2022-07-29T10:02:27.891Z,64.26
2022-07-29T10:03:28.778Z,64.76
2022-07-29T10:04:29.637Z,63.66
2022-07-29T10:05:36.500Z,63.86
2022-07-29T10:06:32.178Z,64.16
2022-07-29T10:07:32.008Z,64.06
2022-07-29T10:08:32.827Z,63.76
2022-07-29T10:09:33.647Z,63.46
2022-07-29T10:10:34.484Z,63.86
2022-07-29T10:11:49.000Z,64.56
2022-07-29T10:12:37.016Z,64.06
2022-07-29T10:13:36.850Z,63.66
2022-07-29T10:14:37.662Z,64.13
2022-07-29T10:15:38.491Z,63.93
2022-07-29T10:16:39.392Z,62.34
2022-07-29T10:17:41.753Z,63.03
2022-07-29T10:18:41.136Z,64.93
2022-07-29T10:19:41.972Z,64.23
2022-07-29T10:20:42.820Z,63.33
2022-07-29T10:21:43.631Z,62.73
2022-07-29T10:22:52.965Z,62.43
2022-07-29T10:23:47.400Z,62.70
2022-07-29T10:24:45.700Z,62.60
2022-07-29T10:25:46.832Z,62.20
2022-07-29T10:26:47.116Z,61.71
2022-07-29T10:27:47.963Z,62.01
2022-07-29T10:28:48.766Z,61.41
2022-07-29T10:29:49.585Z,61.10
2022-07-29T10:30:50.423Z,62.10
2022-07-29T10:31:51.327Z,61.80
2022-07-29T10:32:54.220Z,61.51
2022-07-29T10:33:52.760Z,61.71
2022-07-29T10:34:53.570Z,61.90
2022-07-29T10:35:54.410Z,61.21
2022-07-29T10:36:55.256Z,59.61
2022-07-29T10:37:56.058Z,59.88
2022-07-29T10:38:56.685Z,60.48
2022-07-29T10:39:57.368Z,61.68
2022-07-29T10:40:58.193Z,61.57
2022-07-29T10:41:59.279Z,59.58
2022-07-29T10:42:59.681Z,60.08
2022-07-29T10:44:00.340Z,60.38
2022-07-29T10:45:01.169Z,61.08
2022-07-29T10:46:02.013Z,60.68
2022-07-29T10:47:02.919Z,60.28
2022-07-29T10:48:03.709Z,60.68
2022-07-29T10:49:04.659Z,60.65
2022-07-29T10:50:05.496Z,61.25
2022-07-29T10:51:06.855Z,61.74
2022-07-29T10:52:06.872Z,60.55
2022-07-29T10:53:08.841Z,60.15
2022-07-29T10:54:08.304Z,61.05
2022-07-29T10:55:09.232Z,61.25
2022-07-29T10:56:14.597Z,59.65
2022-07-29T10:57:11.775Z,59.22
2022-07-29T10:58:11.612Z,58.03
2022-07-29T10:59:12.431Z,59.02
2022-07-29T11:00:13.274Z,58.62
2022-07-29T11:01:13.855Z,57.33
2022-07-29T11:02:36.417Z,57.43
2022-07-29T11:03:16.298Z,58.12
2022-07-29T11:04:15.940Z,57.93
2022-07-29T11:05:16.755Z,58.03
2022-07-29T11:06:18.034Z,57.33
2022-07-29T11:07:19.296Z,58.23
2022-07-29T11:08:20.021Z,58.33
2022-07-29T11:09:34.764Z,59.82
2022-07-29T11:10:21.849Z,59.49
2022-07-29T11:11:22.563Z,59.49
2022-07-29T11:12:23.279Z,58.50
2022-07-29T11:13:23.188Z,59.09
2022-07-29T11:14:26.537Z,57.10
2022-07-29T11:15:25.256Z,57.20
2022-07-29T11:16:25.697Z,57.50
2022-07-29T11:17:26.449Z,57.50
2022-07-29T11:18:26.947Z,57.10
2022-07-29T11:19:30.438Z,58.10
2022-07-29T11:20:28.663Z,57.20
2022-07-29T11:21:48.836Z,57.70
2022-07-29T11:22:31.216Z,57.20
2022-07-29T11:23:33.852Z,56.70
2022-07-29T11:24:32.259Z,56.70
2022-07-29T11:25:42.977Z,57.50
2022-07-29T11:26:34.420Z,57.70
2022-07-29T11:27:33.987Z,57.50
2022-07-29T11:28:34.822Z,57.50
2022-07-29T11:29:40.029Z,57.60
2022-07-29T11:30:36.497Z,58.00
2022-07-29T11:31:37.195Z,57.30
2022-07-29T11:32:38.025Z,57.20
2022-07-29T11:33:56.158Z,58.29
2022-07-29T11:34:40.591Z,58.29
2022-07-29T11:35:40.471Z,58.80
2022-07-29T11:36:41.289Z,59.19
2022-07-29T11:37:45.745Z,58.10
2022-07-29T11:38:43.734Z,58.00
2022-07-29T11:39:43.561Z,58.50
2022-07-29T11:40:44.560Z,59.30
2022-07-29T11:41:45.361Z,59.19
2022-07-29T11:42:46.018Z,58.50
2022-07-29T11:43:46.948Z,60.09
2022-07-29T11:44:47.499Z,60.39
2022-07-29T11:45:48.259Z,60.09
2022-07-29T11:46:49.048Z,60.19
2022-07-29T11:47:49.922Z,60.09
2022-07-29T11:48:50.716Z,60.92
2022-07-29T11:49:51.425Z,61.32
2022-07-29T11:50:52.094Z,60.82
2022-07-29T11:51:52.922Z,60.72
2022-07-29T11:52:53.768Z,60.85
2022-07-29T11:53:54.583Z,61.35
2022-07-29T11:55:00.630Z,61.44
2022-07-29T11:55:56.188Z,61.25
2022-07-29T11:56:56.959Z,62.04
2022-07-29T11:58:03.825Z,61.94
2022-07-29T11:58:59.513Z,62.24
2022-07-29T12:00:04.759Z,62.24
2022-07-29T12:01:04.819Z,62.64
2022-07-29T12:02:33.110Z,62.04
2022-07-29T12:03:02.587Z,62.24
2022-07-29T12:04:02.397Z,62.24
2022-07-29T12:05:11.039Z,61.94
2022-07-29T12:06:07.597Z,62.24
2022-07-29T12:08:05.522Z,62.84
2022-07-29T12:09:06.502Z,63.24
2022-07-29T12:10:07.082Z,63.44
2022-07-29T12:11:07.960Z,63.64
2022-07-29T12:12:08.863Z,63.74
2022-07-29T12:13:09.642Z,63.64
2022-07-29T12:14:10.472Z,62.64
2022-07-29T12:15:11.531Z,63.14
2022-07-29T12:16:14.696Z,63.04
2022-07-29T12:17:12.645Z,62.74
2022-07-29T12:18:13.441Z,62.64
2022-07-29T12:19:14.261Z,62.74
2022-07-29T12:20:15.089Z,62.94
2022-07-29T12:21:16.815Z,61.55
2022-07-29T12:22:16.684Z,61.44
2022-07-29T12:23:17.535Z,61.74
2022-07-29T12:24:18.273Z,62.54
2022-07-29T12:25:34.666Z,62.31
2022-07-29T12:26:25.511Z,62.41
2022-07-29T12:27:28.609Z,61.52
2022-07-29T12:28:27.428Z,61.52
2022-07-29T12:29:34.668Z,61.11
2022-07-29T12:30:23.488Z,61.19
2022-07-29T12:31:43.278Z,61.58
2022-07-29T12:32:25.046Z,61.88
2022-07-29T12:33:24.852Z,61.19
2022-07-29T12:34:25.689Z,61.39
2022-07-29T12:35:26.521Z,61.19
2022-07-29T12:36:27.339Z,60.19
2022-07-29T12:37:40.854Z,60.09
2022-07-29T12:38:29.875Z,60.59
2022-07-29T12:39:29.693Z,61.06
2022-07-29T12:40:30.522Z,61.46
2022-07-29T12:41:31.378Z,60.26
2022-07-29T12:42:32.183Z,60.16
2022-07-29T12:43:33.000Z,59.77
2022-07-29T12:44:33.829Z,59.77
2022-07-29T12:45:34.651Z,59.47
2022-07-29T12:46:35.581Z,60.06
2022-07-29T12:47:36.388Z,59.86
2022-07-29T12:48:37.242Z,59.56
2022-07-29T12:49:38.373Z,60.06
2022-07-29T12:50:38.638Z,59.27
2022-07-29T12:51:39.466Z,59.36
2022-07-29T12:52:40.294Z,58.87
2022-07-29T12:53:41.141Z,59.17
2022-07-29T12:54:41.950Z,59.56
2022-07-29T12:55:42.769Z,60.16
2022-07-29T12:56:44.681Z,59.77
2022-07-29T12:57:44.340Z,59.36
2022-07-29T12:58:46.108Z,59.27
2022-07-29T12:59:46.127Z,59.86
2022-07-29T13:00:46.967Z,59.36
2022-07-29T13:01:47.923Z,59.36
2022-07-29T13:02:48.812Z,58.76
2022-07-29T13:03:56.886Z,59.56